Time;durP1;ratioP1;P1;durP2;ratioP2;P2;SDS_P1;SDS_P2;PMS_P1;PMS_P2;Temp;Humidity;BMP_temperature;BMP_pressure;BME280_temperature;BME280_humidity;BME280_pressure;Samples;Min_cycle;Max_cycle;Signal;HPM_P1;HPM_P2
2023/09/02 00:01:17;;;;;;;5.55;4.05;;;14.80;99.90;;;;;;6177501;23;20045;-90
2023/09/02 00:03:48;;;;;;;6.57;4.22;;;14.80;99.90;;;;;;6173145;23;20294;-91
2023/09/02 00:06:19;;;;;;;8.63;4.60;;;14.80;99.90;;;;;;6173338;23;20086;-90
2023/09/02 00:08:45;;;;;;;8.55;4.60;;;14.80;99.90;;;;;;6222976;23;20079;-92
2023/09/02 00:11:16;;;;;;;7.75;4.70;;;14.80;99.90;;;;;;6174966;23;20019;-91
2023/09/02 00:13:45;;;;;;;10.20;4.97;;;14.80;99.90;;;;;;6197607;23;20004;-91
2023/09/02 00:16:13;;;;;;;7.95;4.40;;;14.80;99.90;;;;;;6173241;23;20071;-90
2023/09/02 00:18:45;;;;;;;9.27;4.55;;;14.80;99.90;;;;;;6173187;23;20412;-91
2023/09/02 00:21:26;;;;;;;;;;;;;;;;;;;;;
2023/09/02 00:24:04;;;;;;;6.55;4.50;;;14.70;99.90;;;;;;6223246;23;20064;-91
2023/09/02 00:26:34;;;;;;;6.68;4.38;;;14.70;99.90;;;;;;6174662;23;20091;-91
2023/09/02 00:29:06;;;;;;;6.97;4.40;;;14.70;99.90;;;;;;6173073;23;20022;-91
2023/09/02 00:31:42;;;;;;;9.63;4.72;;;14.70;99.90;;;;;;6154382;23;20012;-91
2023/09/02 00:34:11;;;;;;;9.32;4.85;;;14.60;99.90;;;;;;6197405;23;20012;-90
2023/09/02 00:36:49;;;;;;;6.68;4.30;;;14.60;99.90;;;;;;6168482;23;20374;-91
2023/09/02 00:39:28;;;;;;;6.70;4.75;;;14.60;99.90;;;;;;6195085;23;20004;-91
2023/09/02 00:42:20;;;;;;;6.75;4.85;;;14.60;99.90;;;;;;6217692;23;20374;-91
2023/09/02 00:44:51;;;;;;;9.43;4.70;;;14.60;99.90;;;;;;6192901;23;20017;-91
2023/09/02 00:47:20;;;;;;;7.22;4.95;;;14.50;99.90;;;;;;6168361;23;20015;-91
2023/09/02 00:49:46;;;;;;;8.02;5.22;;;14.50;99.90;;;;;;6192418;23;20096;-90
2023/09/02 00:52:21;;;;;;;7.15;5.25;;;14.50;99.90;;;;;;6193433;23;20012;-89
2023/09/02 00:54:59;;;;;;;;;;;;;;;;;;;;;
2023/09/02 00:57:35;;;;;;;8.05;5.60;;;14.40;99.90;;;;;;6194201;23;20039;-90
2023/09/02 01:00:23;;;;;;;;;;;;;;;;;;;;;
2023/09/02 01:02:51;;;;;;;8.13;5.80;;;14.30;99.90;;;;;;6169644;23;20386;-91
2023/09/02 01:05:21;;;;;;;8.75;6.13;;;14.30;99.90;;;;;;6167813;23;20067;-90
2023/09/02 01:08:08;;;;;;;10.38;6.22;;;14.20;99.90;;;;;;6169802;23;20019;-90
2023/09/02 01:10:39;;;;;;;10.55;6.72;;;14.20;99.90;;;;;;6193493;23;20070;-91
2023/09/02 01:13:13;;;;;;;8.40;6.65;;;14.20;99.90;;;;;;6169094;23;20008;-91
2023/09/02 01:15:53;;;;;;;9.20;6.60;;;14.20;99.90;;;;;;6192774;23;20036;-90
2023/09/02 01:18:33;;;;;;;9.98;6.05;;;14.20;99.90;;;;;;6191922;23;20428;-91
2023/09/02 01:21:22;;;;;;;8.07;5.95;;;14.20;99.90;;;;;;6167760;23;20283;-90
2023/09/02 01:24:59;;;;;;;9.18;6.20;;;14.20;99.90;;;;;;6176418;23;20381;-91
2023/09/02 01:27:37;;;;;;;8.45;6.72;;;14.20;99.90;;;;;;6168448;23;20004;-91
2023/09/02 01:30:27;;;;;;;9.48;6.65;;;14.10;99.90;;;;;;6193166;23;20310;-90
2023/09/02 01:33:32;;;;;;;9.18;6.70;;;14.10;99.90;;;;;;6189629;23;20248;-91
2023/09/02 01:36:18;;;;;;;9.63;6.50;;;14.10;99.90;;;;;;6198209;23;20028;-90
2023/09/02 01:38:48;;;;;;;10.10;6.38;;;14.00;99.90;;;;;;6196987;23;20001;-92
2023/09/02 01:41:36;;;;;;;9.30;6.40;;;14.00;99.90;;;;;;6174502;23;20279;-91
2023/09/02 01:44:08;;;;;;;9.32;6.20;;;14.00;99.90;;;;;;6195359;23;20017;-91
2023/09/02 01:46:42;;;;;;;8.93;6.40;;;14.00;99.90;;;;;;6148695;23;20013;-91
2023/09/02 01:49:21;;;;;;;10.75;6.53;;;14.00;99.90;;;;;;6194023;23;20016;-91
2023/09/02 01:51:59;;;;;;;9.25;7.00;;;14.00;99.90;;;;;;6194321;23;20080;-90
2023/09/02 01:54:35;;;;;;;8.15;6.18;;;13.90;99.90;;;;;;6193875;23;20077;-92
2023/09/02 01:57:09;;;;;;;10.02;6.53;;;14.00;99.90;;;;;;6194020;23;20011;-91
2023/09/02 01:59:50;;;;;;;10.07;6.88;;;14.00;99.90;;;;;;6195531;23;20095;-91
2023/09/02 02:02:23;;;;;;;9.43;6.85;;;13.90;99.90;;;;;;6170130;23;20406;-91
2023/09/02 02:05:00;;;;;;;9.20;7.22;;;13.90;99.90;;;;;;6169357;23;20051;-91
2023/09/02 02:07:33;;;;;;;10.80;6.88;;;13.90;99.90;;;;;;6194939;23;20015;-91
2023/09/02 02:10:09;;;;;;;9.10;6.55;;;13.90;99.90;;;;;;6193990;23;20029;-90
2023/09/02 02:13:00;;;;;;;12.02;7.32;;;13.90;99.90;;;;;;6194330;23;20020;-91
2023/09/02 02:15:51;;;;;;;9.85;7.20;;;13.90;99.90;;;;;;6174289;23;20028;-91
2023/09/02 02:18:33;;;;;;;;;;;;;;;;;;;;;
2023/09/02 02:21:11;;;;;;;9.65;6.55;;;13.80;99.90;;;;;;6197261;23;20071;-91
2023/09/02 02:23:53;;;;;;;9.05;6.38;;;13.80;99.90;;;;;;6169022;23;20008;-90
2023/09/02 02:26:29;;;;;;;9.30;6.97;;;13.80;99.90;;;;;;6170822;23;20036;-90
2023/09/02 02:29:30;;;;;;;11.13;6.95;;;13.70;99.90;;;;;;6200183;23;20015;-91
2023/09/02 02:32:14;;;;;;;11.63;6.93;;;13.70;99.90;;;;;;6195924;23;20013;-92
2023/09/02 02:35:06;;;;;;;11.00;6.93;;;13.70;99.90;;;;;;6178797;23;20012;-91
2023/09/02 02:37:55;;;;;;;9.13;6.82;;;13.70;99.90;;;;;;6166888;23;20333;-91
2023/09/02 02:40:33;;;;;;;10.20;6.97;;;13.70;99.90;;;;;;6147901;23;20016;-91
2023/09/02 02:43:06;;;;;;;8.40;6.68;;;13.70;99.90;;;;;;6096762;23;20024;-91
2023/09/02 02:45:35;;;;;;;11.23;7.13;;;13.70;99.90;;;;;;6145592;23;20031;-91
2023/09/02 02:48:11;;;;;;;;;;;;;;;;;;;;;
2023/09/02 02:50:45;;;;;;;9.35;7.30;;;13.60;99.90;;;;;;6194361;23;20005;-91
2023/09/02 02:53:22;;;;;;;9.13;6.90;;;13.60;99.90;;;;;;6169221;23;20377;-90
2023/09/02 02:55:53;;;;;;;9.52;7.22;;;13.60;99.90;;;;;;6169485;23;20092;-91
2023/09/02 02:58:48;;;;;;;10.07;6.90;;;13.60;99.90;;;;;;6195878;23;20024;-92
2023/09/02 03:01:20;;;;;;;9.65;7.50;;;13.60;99.90;;;;;;6144598;23;20453;-91
2023/09/02 03:04:17;;;;;;;10.52;7.30;;;13.60;99.90;;;;;;6170363;23;20147;-91
2023/09/02 03:06:50;;;;;;;10.73;6.70;;;13.60;99.90;;;;;;6168533;23;20166;-92
2023/09/02 03:09:29;;;;;;;8.73;6.75;;;13.60;99.90;;;;;;6169770;23;20664;-91
2023/09/02 03:11:58;;;;;;;10.32;7.53;;;13.50;99.90;;;;;;6145019;23;20381;-91
2023/09/02 03:14:29;;;;;;;9.52;6.88;;;13.50;99.90;;;;;;6145069;23;20015;-91
2023/09/02 03:17:13;;;;;;;9.55;6.43;;;13.50;99.90;;;;;;6145001;23;20059;-91
2023/09/02 03:19:51;;;;;;;7.93;6.55;;;13.50;99.90;;;;;;6169212;23;20004;-91
2023/09/02 03:22:25;;;;;;;9.38;6.70;;;13.50;99.90;;;;;;6168539;23;20020;-90
2023/09/02 03:25:14;;;;;;;10.00;7.20;;;13.50;99.90;;;;;;6149799;23;20091;-91
2023/09/02 03:27:50;;;;;;;10.02;7.28;;;13.50;99.90;;;;;;6169198;23;20012;-91
2023/09/02 03:30:37;;;;;;;9.75;7.53;;;13.50;99.90;;;;;;6170752;23;20013;-91
2023/09/02 03:33:15;;;;;;;;;;;;;;;;;;;;;
2023/09/02 03:35:52;;;;;;;9.73;6.85;;;13.40;99.90;;;;;;6197670;23;20312;-90
2023/09/02 03:38:39;;;;;;;10.18;7.50;;;13.40;99.90;;;;;;6173036;23;20377;-91
2023/09/02 03:41:23;;;;;;;8.85;6.63;;;13.40;99.90;;;;;;6198680;23;20000;-91
2023/09/02 03:44:04;;;;;;;10.50;7.30;;;13.40;99.90;;;;;;6223167;23;20034;-91
2023/09/02 03:46:42;;;;;;;13.40;8.25;;;13.40;99.90;;;;;;6176035;23;20016;-92
2023/09/02 03:49:19;;;;;;;10.38;7.05;;;13.40;99.90;;;;;;6198829;23;20408;-92
2023/09/02 03:51:57;;;;;;;10.25;7.28;;;13.40;99.90;;;;;;6200717;23;20015;-91
2023/09/02 03:54:42;;;;;;;9.70;7.25;;;13.40;99.90;;;;;;6153470;23;20008;-91
2023/09/02 03:57:23;;;;;;;10.20;7.22;;;13.40;99.90;;;;;;6199972;23;20012;-90
2023/09/02 04:00:15;;;;;;;10.48;7.40;;;13.30;99.90;;;;;;6161066;23;20417;-91
2023/09/02 04:03:09;;;;;;;10.18;7.72;;;13.40;99.90;;;;;;6181874;23;20395;-91
2023/09/02 04:05:48;;;;;;;10.85;7.90;;;13.30;99.90;;;;;;6176886;23;20019;-91
2023/09/02 04:08:21;;;;;;;9.70;7.95;;;13.30;99.90;;;;;;6198641;23;20024;-92
2023/09/02 04:10:57;;;;;;;10.98;8.05;;;13.30;99.90;;;;;;6174909;23;20018;-91
2023/09/02 04:13:41;;;;;;;;;;;;;;;;;;;;;
2023/09/02 04:16:22;;;;;;;9.55;7.75;;;13.30;99.90;;;;;;6198862;23;20036;-90
2023/09/02 04:19:02;;;;;;;9.75;7.53;;;13.30;99.90;;;;;;6176567;23;20087;-91
2023/09/02 04:21:52;;;;;;;11.68;7.97;;;13.30;99.90;;;;;;6191063;23;20008;-90
2023/09/02 04:24:50;;;;;;;9.18;7.40;;;13.30;99.90;;;;;;6173985;23;20281;-91
2023/09/02 04:27:24;;;;;;;10.32;7.55;;;13.30;99.90;;;;;;6174160;23;20337;-91
2023/09/02 04:30:08;;;;;;;8.98;7.15;;;13.20;99.90;;;;;;6175948;23;20202;-91
2023/09/02 04:32:49;;;;;;;;;;;;;;;;;;;;;
2023/09/02 04:35:25;;;;;;;12.02;8.23;;;13.20;99.90;;;;;;6198290;23;20091;-91
2023/09/02 04:37:59;;;;;;;12.07;8.18;;;13.10;99.90;;;;;;6198342;23;20039;-91
2023/09/02 04:40:27;;;;;;;11.43;8.52;;;13.10;99.90;;;;;;6173152;23;20043;-91
2023/09/02 04:42:55;;;;;;;10.30;7.88;;;13.10;99.90;;;;;;6173098;23;20090;-91
2023/09/02 04:45:26;;;;;;;11.75;8.65;;;13.10;99.90;;;;;;6173047;23;20011;-92
2023/09/02 04:47:58;;;;;;;9.77;8.02;;;13.00;99.90;;;;;;6173794;23;20015;-91
2023/09/02 04:50:32;;;;;;;11.60;7.97;;;13.10;99.90;;;;;;6173149;23;20027;-91
2023/09/02 04:52:59;;;;;;;10.50;7.72;;;13.10;99.90;;;;;;6197669;23;20381;-90
2023/09/02 04:55:29;;;;;;;10.90;7.90;;;13.10;99.90;;;;;;6173648;23;20448;-90
2023/09/02 04:58:08;;;;;;;9.35;7.43;;;13.00;99.90;;;;;;6173910;23;20008;-90
2023/09/02 05:00:46;;;;;;;12.23;7.85;;;13.10;99.90;;;;;;6178688;23;20016;-90
2023/09/02 05:03:19;;;;;;;;;;;13.10;99.90;;;;;;6174178;23;20012;-89
2023/09/02 05:05:50;;;;;;;11.90;8.05;;;13.00;99.90;;;;;;6173068;23;19911;-89
2023/09/02 05:08:17;;;;;;;10.38;7.88;;;13.00;99.90;;;;;;6171810;23;20008;-89
2023/09/02 05:10:49;;;;;;;13.85;7.70;;;13.00;99.90;;;;;;6172615;23;20063;-89
2023/09/02 05:13:15;;;;;;;11.52;8.45;;;13.00;99.90;;;;;;6171945;23;20058;-90
2023/09/02 05:16:01;;;;;;;10.57;8.07;;;13.10;99.90;;;;;;6150643;23;20047;-90
2023/09/02 05:18:35;;;;;;;10.43;8.18;;;13.10;99.90;;;;;;6174157;23;20012;-89
2023/09/02 05:21:06;;;;;;;12.40;8.82;;;13.00;99.90;;;;;;6197983;23;20457;-90
2023/09/02 05:23:42;;;;;;;11.82;8.70;;;13.10;99.90;;;;;;6200953;23;20114;-90
2023/09/02 05:26:13;;;;;;;11.75;9.00;;;13.00;99.90;;;;;;6172316;23;20099;-89
2023/09/02 05:28:50;;;;;;;11.48;8.57;;;13.00;99.90;;;;;;6173141;23;20017;-90
2023/09/02 05:31:44;;;;;;;10.93;8.63;;;13.00;99.90;;;;;;6180273;23;20087;-90
2023/09/02 05:34:14;;;;;;;11.32;7.97;;;13.00;99.90;;;;;;6172864;23;20008;-90
2023/09/02 05:36:43;;;;;;;10.93;8.25;;;13.00;99.90;;;;;;6167052;23;20020;-90
2023/09/02 05:39:14;;;;;;;11.07;8.45;;;13.00;99.90;;;;;;6144624;23;20059;-90
2023/09/02 05:41:50;;;;;;;11.40;8.00;;;13.10;99.90;;;;;;6171268;23;20040;-89
2023/09/02 05:44:22;;;;;;;11.60;8.45;;;13.10;99.90;;;;;;6168368;23;20062;-91
2023/09/02 05:46:57;;;;;;;11.38;8.25;;;13.20;99.90;;;;;;6170683;23;20047;-91
2023/09/02 05:49:29;;;;;;;10.15;8.05;;;13.20;99.90;;;;;;6192936;23;20047;-90
2023/09/02 05:52:02;;;;;;;11.95;8.27;;;13.20;99.90;;;;;;6192744;23;20083;-90
2023/09/02 05:54:28;;;;;;;13.02;7.90;;;13.20;99.90;;;;;;6192509;23;20004;-91
2023/09/02 05:57:02;;;;;;;12.75;7.85;;;13.20;99.90;;;;;;6194099;23;20019;-91
2023/09/02 05:59:38;;;;;;;15.30;8.32;;;13.30;99.90;;;;;;6168113;23;20012;-91
2023/09/02 06:02:34;;;;;;;11.30;8.05;;;13.30;99.90;;;;;;6169069;23;20046;-91
2023/09/02 06:05:22;;;;;;;10.20;8.07;;;13.40;99.90;;;;;;6196108;23;20043;-91
2023/09/02 06:08:02;;;;;;;10.20;7.30;;;13.40;99.90;;;;;;6170273;23;20438;-91
2023/09/02 06:10:32;;;;;;;10.00;6.88;;;13.40;99.90;;;;;;6217331;23;20068;-90
2023/09/02 06:12:59;;;;;;;11.52;8.07;;;13.40;99.90;;;;;;6167502;23;20036;-91
2023/09/02 06:15:37;;;;;;;12.13;8.13;;;13.50;99.90;;;;;;6168861;23;20005;-91
2023/09/02 06:18:08;;;;;;;9.77;7.65;;;13.50;99.90;;;;;;6191582;23;20009;-90
2023/09/02 06:20:48;;;;;;;;;;;;;;;;;;;;;
2023/09/02 06:23:20;;;;;;;11.52;8.18;;;13.50;99.90;;;;;;6196941;23;20066;-92
2023/09/02 06:26:19;;;;;;;;;;;;;;;;;;;;;
2023/09/02 06:29:10;;;;;;;11.73;7.15;;;13.60;99.90;;;;;;6193657;23;20024;-91
2023/09/02 06:31:54;;;;;;;12.25;7.63;;;13.70;99.90;;;;;;6157051;23;20278;-90
2023/09/02 06:34:56;;;;;;;;;;;;;;;;;;;;;
2023/09/02 06:40:38;;;;;;;;;;;;;;;;;;;;;
2023/09/02 06:43:31;;;;;;;10.27;7.32;;;13.80;99.90;;;;;;6164786;23;20013;-91
2023/09/02 06:46:22;;;;;;;10.68;7.28;;;13.70;99.90;;;;;;6170613;23;20008;-89
2023/09/02 06:49:18;;;;;;;10.05;7.15;;;13.70;99.90;;;;;;6173356;23;20012;-89
2023/09/02 06:54:53;;;;;;;;;;;;;;;;;;;;;
2023/09/02 06:57:50;;;;;;;9.73;6.20;;;13.80;99.90;;;;;;6170648;23;20265;-91
2023/09/02 07:00:30;;;;;;;8.60;6.50;;;13.90;99.90;;;;;;6220057;23;20063;-90
2023/09/02 07:03:30;;;;;;;9.50;6.28;;;14.10;99.90;;;;;;6152029;23;20163;-90
2023/09/02 07:10:35;;;;;;;9.55;6.13;;;14.30;99.90;;;;;;6068274;23;20007;-91
2023/09/02 07:13:20;;;;;;;9.02;6.60;;;14.50;99.90;;;;;;6170594;23;20612;-91
2023/09/02 07:16:26;;;;;;;9.82;6.50;;;14.70;99.90;;;;;;6148774;23;20028;-92
2023/09/02 07:19:16;;;;;;;10.80;6.05;;;14.80;99.90;;;;;;6169239;23;20016;-90
2023/09/02 07:22:07;;;;;;;10.73;6.68;;;14.90;99.90;;;;;;6147093;23;20028;-92
2023/09/02 07:24:53;;;;;;;10.20;7.00;;;15.10;99.90;;;;;;6173090;23;20009;-91
2023/09/02 07:27:36;;;;;;;10.75;6.97;;;15.20;99.90;;;;;;6171949;23;20055;-92
2023/09/02 07:30:20;;;;;;;;;;;;;;;;;;;;;
2023/09/02 07:33:05;;;;;;;9.85;7.05;;;15.30;99.90;;;;;;6149919;23;20064;-91
2023/09/02 07:35:54;;;;;;;16.70;8.20;;;15.40;99.90;;;;;;6170578;23;20032;-91
2023/09/02 07:39:05;;;;;;;11.07;7.18;;;15.50;99.90;;;;;;6175386;23;20012;-91
2023/09/02 07:42:21;;;;;;;9.85;6.85;;;15.60;99.90;;;;;;6172454;23;20265;-92
2023/09/02 07:45:22;;;;;;;8.82;6.53;;;15.70;99.90;;;;;;6177294;23;20052;-92
2023/09/02 07:48:21;;;;;;;9.98;6.82;;;15.80;99.90;;;;;;6203106;23;20083;-91
2023/09/02 07:51:06;;;;;;;10.82;6.68;;;15.90;99.90;;;;;;6176723;23;20011;-91
2023/09/02 07:53:55;;;;;;;9.57;6.07;;;16.00;99.90;;;;;;6181098;23;20377;-92
2023/09/02 07:56:53;;;;;;;8.85;6.07;;;16.10;99.90;;;;;;6179722;23;20058;-91
2023/09/02 08:00:18;;;;;;;10.07;6.07;;;16.30;99.90;;;;;;6168488;23;20005;-92
2023/09/02 08:03:38;;;;;;;;;;;;;;;;;;;;;
2023/09/02 08:06:42;;;;;;;;;;;;;;;;;;;;;
2023/09/02 08:10:02;;;;;;;8.07;4.97;;;16.80;99.90;;;;;;6192644;23;20012;-91
2023/09/02 08:13:03;;;;;;;7.32;5.00;;;16.90;99.90;;;;;;6200528;23;20043;-91
2023/09/02 08:16:04;;;;;;;6.07;3.85;;;16.90;99.90;;;;;;6199658;23;20088;-91
2023/09/02 08:19:06;;;;;;;7.75;3.30;;;17.10;99.90;;;;;;6193062;23;20016;-91
2023/09/02 08:21:59;;;;;;;6.55;3.03;;;17.10;99.90;;;;;;6174931;23;20046;-91
2023/09/02 08:24:55;;;;;;;6.00;3.22;;;17.30;99.90;;;;;;6177460;23;20008;-91
2023/09/02 08:27:47;;;;;;;7.63;3.25;;;17.40;99.90;;;;;;6195370;23;20035;-91
2023/09/02 08:30:24;;;;;;;6.38;3.42;;;17.60;99.90;;;;;;6174325;23;20016;-91
2023/09/02 08:33:33;;;;;;;7.55;3.30;;;17.60;99.90;;;;;;6181665;23;20016;-92
2023/09/02 08:36:47;;;;;;;;;;;;;;;;;;;;;
2023/09/02 08:39:23;;;;;;;8.32;2.70;;;17.80;99.90;;;;;;6175703;23;20469;-92
2023/09/02 08:42:13;;;;;;;6.25;3.22;;;17.90;99.90;;;;;;6174308;23;20019;-92
2023/09/02 08:44:48;;;;;;;8.73;2.95;;;18.00;99.90;;;;;;6159428;23;20019;-91
2023/09/02 08:47:44;;;;;;;7.00;3.63;;;17.90;99.90;;;;;;6175469;23;20000;-92
2023/09/02 08:50:28;;;;;;;6.82;3.53;;;17.90;99.90;;;;;;6198045;23;20000;-92
2023/09/02 08:53:19;;;;;;;4.20;2.70;;;17.90;99.90;;;;;;6185303;23;20008;-91
2023/09/02 08:56:26;;;;;;;;;;;;;;;;;;;;;
2023/09/02 08:59:07;;;;;;;8.20;3.00;;;18.10;99.90;;;;;;6199339;23;20102;-91
2023/09/02 09:01:44;;;;;;;4.88;2.33;;;18.30;99.90;;;;;;6176699;23;20381;-92
2023/09/02 09:04:41;;;;;;;4.40;2.50;;;18.40;99.90;;;;;;6201824;23;20008;-91
2023/09/02 09:07:45;;;;;;;7.28;3.00;;;18.50;99.90;;;;;;6177638;23;20012;-92
2023/09/02 09:10:46;;;;;;;6.70;2.85;;;18.60;99.90;;;;;;6177621;23;20091;-92
2023/09/02 09:14:03;;;;;;;;;;;;;;;;;;;;;
2023/09/02 09:17:11;;;;;;;5.68;2.83;;;18.70;99.90;;;;;;6203449;23;20457;-91
2023/09/02 09:20:08;;;;;;;6.90;3.22;;;18.70;99.90;;;;;;6181401;23;20007;-92
2023/09/02 09:23:08;;;;;;;;;;;;;;;;;;;;;
2023/09/02 09:26:32;;;;;;;9.63;4.60;;;18.90;99.90;;;;;;6225173;23;20004;-92
2023/09/02 09:29:51;;;;;;;8.27;3.85;;;19.10;99.90;;;;;;6186343;23;20104;-91
2023/09/02 09:32:29;;;;;;;7.90;4.00;;;19.30;99.90;;;;;;6173886;23;20029;-92
2023/09/02 09:35:01;;;;;;;6.60;4.25;;;19.30;99.90;;;;;;6174018;23;20074;-91
2023/09/02 09:38:25;;;;;;;;;;;;;;;;;;;;;
2023/09/02 09:41:14;;;;;;;8.60;4.47;;;19.50;99.90;;;;;;6192501;23;20009;-92
2023/09/02 09:43:48;;;;;;;7.80;4.13;;;19.50;99.90;;;;;;6168917;23;20009;-91
2023/09/02 09:46:32;;;;;;;8.30;4.10;;;19.50;99.90;;;;;;6194166;23;20013;-92
2023/09/02 09:49:44;;;;;;;7.28;4.30;;;19.60;99.90;;;;;;6173790;23;20019;-91
2023/09/02 09:52:34;;;;;;;;;;;;;;;;;;;;;
2023/09/02 09:55:52;;;;;;;;;;;;;;;;;;;;;
2023/09/02 09:58:37;;;;;;;9.02;3.65;;;19.80;99.90;;;;;;6220241;23;20023;-92
2023/09/02 10:01:47;;;;;;;7.38;3.85;;;19.90;99.90;;;;;;6194008;23;20013;-92
2023/09/02 10:04:41;;;;;;;9.23;4.28;;;20.00;99.90;;;;;;6181298;23;20075;-91
2023/09/02 10:07:46;;;;;;;7.13;3.83;;;20.10;99.90;;;;;;6196993;23;20024;-92
2023/09/02 10:10:40;;;;;;;5.70;3.50;;;20.20;99.90;;;;;;6196554;23;20009;-92
2023/09/02 10:16:59;;;;;;;;;;;;;;;;;;;;;
2023/09/02 10:23:09;;;;;;;;;;;;;;;;;;;;;
2023/09/02 10:26:52;;;;;;;7.80;3.95;;;20.80;99.90;;;;;;6219122;23;20083;-91
2023/09/02 10:30:00;;;;;;;;;;;;;;;;;;;;;
2023/09/02 10:33:31;;;;;;;7.38;3.90;;;20.90;99.90;;;;;;6202540;23;20274;-92
2023/09/02 10:36:07;;;;;;;7.75;4.28;;;20.80;99.90;;;;;;6157072;23;20012;-92
2023/09/02 10:39:32;;;;;;;6.82;4.00;;;20.70;99.90;;;;;;6181292;23;20016;-92
2023/09/02 10:42:31;;;;;;;7.28;3.33;;;20.80;99.90;;;;;;6178757;23;20008;-92
2023/09/02 10:45:16;;;;;;;7.63;2.40;;;20.90;99.90;;;;;;6177763;23;20083;-92
2023/09/02 10:48:06;;;;;;;6.20;2.45;;;21.00;99.90;;;;;;6204230;23;20071;-92
2023/09/02 10:51:09;;;;;;;5.63;2.20;;;21.00;99.90;;;;;;6179467;23;20004;-93
2023/09/02 10:53:50;;;;;;;;;;;21.00;99.90;;;;;;6227039;23;20054;-92
2023/09/02 10:56:37;;;;;;;5.85;2.53;;;21.00;99.90;;;;;;6190905;23;19903;-92
2023/09/02 10:59:44;;;;;;;8.45;2.60;;;21.00;99.90;;;;;;6208857;23;20047;-93
2023/09/02 11:03:08;;;;;;;;;;;;;;;;;;;;;
2023/09/02 11:06:27;;;;;;;5.90;2.97;;;21.10;99.90;;;;;;6162289;23;20016;-93
2023/09/02 11:09:11;;;;;;;5.60;2.20;;;21.10;99.90;;;;;;6179188;23;20010;-91
2023/09/02 11:12:28;;;;;;;;;;;;;;;;;;;;;
2023/09/02 11:15:56;;;;;;;4.85;1.48;;;21.20;99.90;;;;;;6195130;23;20026;-93
2023/09/02 11:18:53;;;;;;;2.97;1.52;;;21.20;99.90;;;;;;6199170;23;20038;-92
2023/09/02 11:21:46;;;;;;;4.43;2.00;;;21.10;99.90;;;;;;6154645;23;20012;-92
2023/09/02 11:24:33;;;;;;;5.63;2.38;;;21.00;99.90;;;;;;6174574;23;20019;-92
2023/09/02 11:27:19;;;;;;;4.15;1.50;;;21.00;99.90;;;;;;6175404;23;20012;-92
2023/09/02 11:30:28;;;;;;;;;;;;;;;;;;;;;
2023/09/02 11:33:26;;;;;;;3.50;1.75;;;21.10;99.90;;;;;;6177197;23;20012;-92
2023/09/02 11:36:30;;;;;;;7.15;1.98;;;21.10;99.90;;;;;;6183594;23;20031;-92
2023/09/02 11:39:30;;;;;;;3.70;1.40;;;21.10;99.90;;;;;;6177793;23;20423;-93
2023/09/02 11:42:32;;;;;;;3.78;1.40;;;21.00;99.90;;;;;;6201289;23;20004;-93
2023/09/02 11:45:38;;;;;;;;;;;;;;;;;;;;;
2023/09/02 11:49:24;;;;;;;;;;;;;;;;;;;;;
2023/09/02 11:52:36;;;;;;;2.67;1.30;;;21.10;99.90;;;;;;6191754;23;20023;-92
2023/09/02 11:55:35;;;;;;;2.55;1.17;;;21.10;99.90;;;;;;6157785;23;20431;-91
2023/09/02 11:58:55;;;;;;;;;;;;;;;;;;;;;
2023/09/02 12:02:27;;;;;;;4.87;1.70;;;21.10;99.90;;;;;;6176430;23;20285;-94
2023/09/02 12:05:45;;;;;;;3.75;1.38;;;21.20;99.90;;;;;;6223079;23;20015;-90
2023/09/02 12:11:43;;;;;;;2.42;1.30;;;21.30;99.90;;;;;;6184832;23;20297;-92
2023/09/02 12:14:56;;;;;;;2.30;1.10;;;21.30;99.90;;;;;;6182901;23;20027;-94
2023/09/02 12:18:43;;;;;;;4.38;1.30;;;21.30;99.90;;;;;;6207618;23;20023;-93
2023/09/02 12:21:46;;;;;;;2.72;1.25;;;21.30;99.90;;;;;;6223483;23;20012;-92
2023/09/02 12:24:23;;;;;;;2.28;1.00;;;21.30;99.90;;;;;;6175050;23;20012;-92
2023/09/02 12:27:00;;;;;;;3.90;1.20;;;21.30;99.90;;;;;;6172912;23;20012;-92
2023/09/02 12:29:36;;;;;;;2.67;1.00;;;21.20;99.90;;;;;;6156033;23;20434;-91
2023/09/02 12:32:17;;;;;;;2.65;1.20;;;21.20;99.90;;;;;;6200026;23;20015;-94
2023/09/02 12:35:22;;;;;;;4.10;1.25;;;21.20;99.90;;;;;;6190012;23;20019;-93
2023/09/02 12:38:28;;;;;;;3.55;1.25;;;21.20;99.90;;;;;;6177235;23;20096;-92
2023/09/02 12:42:29;;;;;;;1.75;0.90;;;21.20;99.90;;;;;;6168281;23;20301;-93
2023/09/02 12:45:46;;;;;;;;;;;;;;;;;;;;;
2023/09/02 12:52:57;;;;;;;2.08;1.20;;;21.20;99.90;;;;;;6191688;23;20008;-92
2023/09/02 12:55:30;;;;;;;2.47;1.10;;;21.10;99.90;;;;;;6192608;23;20090;-92
2023/09/02 12:58:25;;;;;;;3.00;1.33;;;21.10;99.90;;;;;;6155509;23;20009;-91
2023/09/02 13:01:02;;;;;;;3.72;1.58;;;21.00;99.90;;;;;;6192280;23;20016;-90
2023/09/02 13:04:01;;;;;;;2.83;1.30;;;21.10;99.90;;;;;;6169481;23;20099;-92
2023/09/02 13:10:53;;;;;;;3.80;1.20;;;21.10;99.90;;;;;;6093614;23;20017;-92
2023/09/02 13:14:15;;;;;;;;;;;;;;;;;;;;;
2023/09/02 13:21:30;;;;;;;;;;;;;;;;;;;;;
2023/09/02 13:29:52;;;;;;;;;;;;;;;;;;;;;
2023/09/02 13:32:53;;;;;;;;;;;;;;;;;;;;;
2023/09/02 13:35:45;;;;;;;3.65;1.30;;;21.30;99.90;;;;;;6158905;23;20011;-93
2023/09/02 13:38:29;;;;;;;3.28;1.65;;;21.40;99.90;;;;;;6193836;23;20021;-94
2023/09/02 13:41:17;;;;;;;;;;;;;;;;;;;;;
2023/09/02 13:44:19;;;;;;;4.25;1.70;;;21.30;99.90;;;;;;6174701;23;20016;-94
2023/09/02 13:50:36;;;;;;;;;;;;;;;;;;;;;
2023/09/02 13:54:03;;;;;;;3.17;1.38;;;21.10;99.90;;;;;;6186323;23;20040;-93
2023/09/02 13:57:06;;;;;;;;;;;21.20;99.90;;;;;;6190739;23;20051;-92
2023/09/02 13:59:41;;;;;;;4.38;1.65;;;21.30;99.90;;;;;;6192145;23;19929;-93
2023/09/02 14:02:29;;;;;;;4.03;1.40;;;21.30;99.90;;;;;;6171560;23;20039;-91
2023/09/02 14:05:16;;;;;;;2.83;1.52;;;21.40;99.90;;;;;;6196596;23;20008;-92
2023/09/02 14:08:17;;;;;;;4.35;1.70;;;21.50;99.90;;;;;;6196623;23;20036;-94
2023/09/02 14:15:14;;;;;;;;;;;;;;;;;;;;;
2023/09/02 14:18:20;;;;;;;;;;;;;;;;;;;;;
2023/09/02 14:22:14;;;;;;;2.22;1.10;;;21.40;99.90;;;;;;6209260;23;20012;-93
2023/09/02 14:25:22;;;;;;;5.57;1.73;;;21.40;99.90;;;;;;6175602;23;20080;-93
2023/09/02 14:28:25;;;;;;;3.38;1.75;;;21.40;99.90;;;;;;6192530;23;20008;-94
2023/09/02 14:31:55;;;;;;;;;;;;;;;;;;;;;
2023/09/02 14:43:29;;;;;;;4.07;1.40;;;21.40;99.90;;;;;;6129575;23;20012;-93
2023/09/02 14:46:32;;;;;;;2.67;1.33;;;21.40;99.90;;;;;;6165550;23;20009;-93
2023/09/02 14:49:42;;;;;;;4.18;1.20;;;21.50;99.90;;;;;;6127119;23;20255;-93
2023/09/02 14:53:45;;;;;;;1.85;1.10;;;21.60;99.90;;;;;;6174186;23;20012;-93
2023/09/02 15:06:08;;;;;;;2.45;1.40;;;21.60;99.90;;;;;;5971254;23;20105;-95
2023/09/02 15:14:19;;;;;;;;;;;;;;;;;;;;;
2023/09/02 15:18:21;;;;;;;;;;;;;;;;;;;;;
2023/09/02 15:21:54;;;;;;;3.10;1.33;;;21.70;99.90;;;;;;6071624;23;20026;-95
2023/09/02 15:25:51;;;;;;;;;;;;;;;;;;;;;
2023/09/02 15:33:40;;;;;;;3.80;1.48;;;21.80;99.90;;;;;;5975553;24;20024;-94
2023/09/02 15:37:04;;;;;;;2.45;1.20;;;21.70;99.90;;;;;;6013552;23;20063;-94
2023/09/02 15:40:38;;;;;;;;;;;;;;;;;;;;;
2023/09/02 15:48:33;;;;;;;3.03;1.30;;;21.70;99.90;;;;;;6053668;23;20019;-95
2023/09/02 15:52:41;;;;;;;;;;;;;;;;;;;;;
2023/09/02 15:56:19;;;;;;;4.15;1.70;;;21.60;99.90;;;;;;6066051;23;20041;-94
2023/09/02 15:59:44;;;;;;;3.47;1.70;;;21.60;99.90;;;;;;6053086;23;20002;-95
2023/09/02 16:03:04;;;;;;;2.53;1.45;;;21.60;99.90;;;;;;6100320;23;20031;-95
2023/09/02 16:06:06;;;;;;;3.08;1.60;;;21.50;99.90;;;;;;6059335;23;20040;-96
2023/09/02 16:09:19;;;;;;;4.38;1.60;;;21.50;99.90;;;;;;6075460;23;20018;-95
2023/09/02 16:12:34;;;;;;;3.35;1.50;;;21.50;99.90;;;;;;6077193;23;20034;-94
2023/09/02 16:18:32;;;;;;;5.22;1.95;;;21.60;99.90;;;;;;6102024;23;20014;-95
2023/09/02 16:21:53;;;;;;;3.33;1.77;;;21.40;99.90;;;;;;6092628;23;20085;-94
2023/09/02 16:24:59;;;;;;;3.35;1.90;;;21.40;99.90;;;;;;6104735;23;20037;-95
2023/09/02 16:28:18;;;;;;;;;;;;;;;;;;;;;
2023/09/02 16:31:32;;;;;;;3.80;1.50;;;21.40;99.90;;;;;;6087763;23;20101;-96
2023/09/02 16:34:44;;;;;;;4.35;1.60;;;21.40;99.90;;;;;;6077913;23;20265;-94
2023/09/02 16:37:51;;;;;;;4.00;1.88;;;21.30;99.90;;;;;;6060245;23;20067;-95
2023/09/02 16:41:01;;;;;;;;;;;;;;;;;;;;;
2023/09/02 16:43:39;;;;;;;5.50;1.83;;;21.20;99.90;;;;;;6104813;23;20376;-95
2023/09/02 16:50:24;;;;;;;3.75;1.65;;;21.00;99.90;;;;;;6043483;23;20010;-95
2023/09/02 16:53:38;;;;;;;3.47;1.90;;;20.90;99.90;;;;;;6085805;23;20014;-94
2023/09/02 16:56:57;;;;;;;;;;;;;;;;;;;;;
2023/09/02 17:00:19;;;;;;;;;;;;;;;;;;;;;
2023/09/02 17:03:24;;;;;;;4.55;1.67;;;20.60;99.90;;;;;;6127783;23;20033;-95
2023/09/02 17:07:08;;;;;;;3.95;2.10;;;20.60;99.90;;;;;;6104140;23;20016;-94
2023/09/02 17:10:17;;;;;;;5.38;2.00;;;20.50;99.90;;;;;;6105990;23;20010;-93
2023/09/02 17:13:04;;;;;;;3.38;2.10;;;20.50;99.90;;;;;;6083727;23;20018;-95
2023/09/02 17:23:07;;;;;;;5.57;3.00;;;20.30;99.90;;;;;;6062840;23;20283;-94
2023/09/02 17:26:10;;;;;;;5.93;2.78;;;20.20;99.90;;;;;;6079493;23;20006;-94
2023/09/02 17:29:42;;;;;;;;;;;;;;;;;;;;;
2023/09/02 17:32:44;;;;;;;6.43;4.15;;;20.10;99.90;;;;;;6086059;23;20065;-94
2023/09/02 17:35:40;;;;;;;4.90;3.15;;;20.00;99.90;;;;;;6063757;23;20067;-95